sensor_id;sensor_type;location;lat;lon;timestamp;temperature;humidity
41720;DHT22;27405;53.316;-6.294;2023-07-24T00:02:09;14.20;99.90
41720;DHT22;27405;53.316;-6.294;2023-07-24T00:04:35;14.20;99.90
41720;DHT22;27405;53.316;-6.294;2023-07-24T00:07:01;14.10;99.90
41720;DHT22;27405;53.316;-6.294;2023-07-24T00:09:26;14.10;99.90
41720;DHT22;27405;53.316;-6.294;2023-07-24T00:11:52;14.10;99.90
41720;DHT22;27405;53.316;-6.294;2023-07-24T00:14:17;14.10;99.90
41720;DHT22;27405;53.316;-6.294;2023-07-24T00:16:43;14.00;99.90
41720;DHT22;27405;53.316;-6.294;2023-07-24T00:19:09;14.00;99.90
41720;DHT22;27405;53.316;-6.294;2023-07-24T00:21:34;14.00;99.90
41720;DHT22;27405;53.316;-6.294;2023-07-24T00:24:00;13.90;99.90
41720;DHT22;27405;53.316;-6.294;2023-07-24T00:26:26;14.00;99.90
41720;DHT22;27405;53.316;-6.294;2023-07-24T00:28:51;13.90;99.90
41720;DHT22;27405;53.316;-6.294;2023-07-24T00:31:17;13.90;99.90
41720;DHT22;27405;53.316;-6.294;2023-07-24T00:33:43;13.80;99.90
41720;DHT22;27405;53.316;-6.294;2023-07-24T00:36:09;13.80;99.90
41720;DHT22;27405;53.316;-6.294;2023-07-24T00:38:34;13.80;99.90
41720;DHT22;27405;53.316;-6.294;2023-07-24T00:41:00;13.70;99.90
41720;DHT22;27405;53.316;-6.294;2023-07-24T00:43:25;13.70;99.90
41720;DHT22;27405;53.316;-6.294;2023-07-24T00:45:51;13.70;99.90
41720;DHT22;27405;53.316;-6.294;2023-07-24T00:48:17;13.70;99.90
41720;DHT22;27405;53.316;-6.294;2023-07-24T00:50:44;13.60;99.90
41720;DHT22;27405;53.316;-6.294;2023-07-24T00:53:11;13.60;99.90
41720;DHT22;27405;53.316;-6.294;2023-07-24T00:55:38;13.60;99.90
41720;DHT22;27405;53.316;-6.294;2023-07-24T00:58:04;13.60;99.90
41720;DHT22;27405;53.316;-6.294;2023-07-24T01:00:30;13.60;99.90
41720;DHT22;27405;53.316;-6.294;2023-07-24T01:02:56;13.50;99.90
41720;DHT22;27405;53.316;-6.294;2023-07-24T01:05:25;13.50;99.90
41720;DHT22;27405;53.316;-6.294;2023-07-24T01:07:52;13.50;99.90
41720;DHT22;27405;53.316;-6.294;2023-07-24T01:10:17;13.50;99.90
41720;DHT22;27405;53.316;-6.294;2023-07-24T01:12:54;13.40;99.90
41720;DHT22;27405;53.316;-6.294;2023-07-24T01:15:26;13.40;99.90
41720;DHT22;27405;53.316;-6.294;2023-07-24T01:17:59;13.40;99.90
41720;DHT22;27405;53.316;-6.294;2023-07-24T01:20:26;13.40;99.90
41720;DHT22;27405;53.316;-6.294;2023-07-24T01:25:58;13.30;99.90
41720;DHT22;27405;53.316;-6.294;2023-07-24T01:28:24;13.30;99.90
41720;DHT22;27405;53.316;-6.294;2023-07-24T01:30:50;13.30;99.90
41720;DHT22;27405;53.316;-6.294;2023-07-24T01:33:17;13.30;99.90
41720;DHT22;27405;53.316;-6.294;2023-07-24T01:35:43;13.20;99.90
41720;DHT22;27405;53.316;-6.294;2023-07-24T01:38:13;13.30;99.90
41720;DHT22;27405;53.316;-6.294;2023-07-24T01:40:42;13.20;99.90
41720;DHT22;27405;53.316;-6.294;2023-07-24T01:43:09;13.20;99.90
41720;DHT22;27405;53.316;-6.294;2023-07-24T01:45:35;13.20;99.90
41720;DHT22;27405;53.316;-6.294;2023-07-24T01:48:03;13.20;99.90
41720;DHT22;27405;53.316;-6.294;2023-07-24T01:50:29;13.20;99.90
41720;DHT22;27405;53.316;-6.294;2023-07-24T01:52:54;13.20;99.90
41720;DHT22;27405;53.316;-6.294;2023-07-24T01:55:20;13.20;99.90
41720;DHT22;27405;53.316;-6.294;2023-07-24T01:57:46;13.20;99.90
41720;DHT22;27405;53.316;-6.294;2023-07-24T02:00:12;13.20;99.90
41720;DHT22;27405;53.316;-6.294;2023-07-24T02:02:37;13.10;99.90
41720;DHT22;27405;53.316;-6.294;2023-07-24T02:05:03;13.10;99.90
41720;DHT22;27405;53.316;-6.294;2023-07-24T02:07:29;13.10;99.90
41720;DHT22;27405;53.316;-6.294;2023-07-24T02:09:54;13.10;99.90
41720;DHT22;27405;53.316;-6.294;2023-07-24T02:12:20;13.10;99.90
41720;DHT22;27405;53.316;-6.294;2023-07-24T02:14:46;13.10;99.90
41720;DHT22;27405;53.316;-6.294;2023-07-24T02:17:15;13.10;99.90
41720;DHT22;27405;53.316;-6.294;2023-07-24T02:19:41;13.00;99.90
41720;DHT22;27405;53.316;-6.294;2023-07-24T02:22:07;13.00;99.90
41720;DHT22;27405;53.316;-6.294;2023-07-24T02:24:33;13.00;99.90
41720;DHT22;27405;53.316;-6.294;2023-07-24T02:26:58;13.00;99.90
41720;DHT22;27405;53.316;-6.294;2023-07-24T02:29:24;13.00;99.90
41720;DHT22;27405;53.316;-6.294;2023-07-24T02:31:50;12.90;99.90
41720;DHT22;27405;53.316;-6.294;2023-07-24T02:34:16;12.90;99.90
41720;DHT22;27405;53.316;-6.294;2023-07-24T02:36:42;13.00;99.90
41720;DHT22;27405;53.316;-6.294;2023-07-24T02:39:07;12.90;99.90
41720;DHT22;27405;53.316;-6.294;2023-07-24T02:41:33;13.00;99.90
41720;DHT22;27405;53.316;-6.294;2023-07-24T02:43:59;13.00;99.90
41720;DHT22;27405;53.316;-6.294;2023-07-24T02:46:24;12.90;99.90
41720;DHT22;27405;53.316;-6.294;2023-07-24T02:48:51;13.00;99.90
41720;DHT22;27405;53.316;-6.294;2023-07-24T02:51:17;12.90;99.90
41720;DHT22;27405;53.316;-6.294;2023-07-24T02:53:43;12.90;99.90
41720;DHT22;27405;53.316;-6.294;2023-07-24T02:56:08;12.90;99.90
41720;DHT22;27405;53.316;-6.294;2023-07-24T02:58:34;12.90;99.90
41720;DHT22;27405;53.316;-6.294;2023-07-24T03:01:04;12.90;99.90
41720;DHT22;27405;53.316;-6.294;2023-07-24T03:03:31;12.90;99.90
41720;DHT22;27405;53.316;-6.294;2023-07-24T03:05:57;12.90;99.90
41720;DHT22;27405;53.316;-6.294;2023-07-24T03:08:22;12.90;99.90
41720;DHT22;27405;53.316;-6.294;2023-07-24T03:10:48;12.90;99.90
41720;DHT22;27405;53.316;-6.294;2023-07-24T03:13:14;12.90;99.90
41720;DHT22;27405;53.316;-6.294;2023-07-24T03:15:39;13.00;99.90
41720;DHT22;27405;53.316;-6.294;2023-07-24T03:18:05;12.90;99.90
41720;DHT22;27405;53.316;-6.294;2023-07-24T03:20:30;13.00;99.90
41720;DHT22;27405;53.316;-6.294;2023-07-24T03:22:56;13.00;99.90
41720;DHT22;27405;53.316;-6.294;2023-07-24T03:25:22;13.00;99.90
41720;DHT22;27405;53.316;-6.294;2023-07-24T03:27:48;13.00;99.90
41720;DHT22;27405;53.316;-6.294;2023-07-24T03:30:13;13.00;99.90
41720;DHT22;27405;53.316;-6.294;2023-07-24T03:32:39;13.00;99.90
41720;DHT22;27405;53.316;-6.294;2023-07-24T03:35:06;12.90;99.90
41720;DHT22;27405;53.316;-6.294;2023-07-24T03:37:33;12.90;99.90
41720;DHT22;27405;53.316;-6.294;2023-07-24T03:39:59;12.90;99.90
41720;DHT22;27405;53.316;-6.294;2023-07-24T03:42:30;12.90;99.90
41720;DHT22;27405;53.316;-6.294;2023-07-24T03:44:56;12.90;99.90
41720;DHT22;27405;53.316;-6.294;2023-07-24T03:47:23;12.90;99.90
41720;DHT22;27405;53.316;-6.294;2023-07-24T03:49:49;12.80;99.90
41720;DHT22;27405;53.316;-6.294;2023-07-24T03:52:15;12.90;99.90
41720;DHT22;27405;53.316;-6.294;2023-07-24T03:54:41;12.80;99.90
41720;DHT22;27405;53.316;-6.294;2023-07-24T03:57:07;12.90;99.90
41720;DHT22;27405;53.316;-6.294;2023-07-24T03:59:32;12.90;99.90
41720;DHT22;27405;53.316;-6.294;2023-07-24T04:01:58;12.90;99.90
41720;DHT22;27405;53.316;-6.294;2023-07-24T04:04:24;12.90;99.90
41720;DHT22;27405;53.316;-6.294;2023-07-24T04:06:50;12.90;99.90
41720;DHT22;27405;53.316;-6.294;2023-07-24T04:09:16;12.90;99.90
41720;DHT22;27405;53.316;-6.294;2023-07-24T04:11:43;13.00;99.90
41720;DHT22;27405;53.316;-6.294;2023-07-24T04:14:09;13.00;99.90
41720;DHT22;27405;53.316;-6.294;2023-07-24T04:16:35;13.00;99.90
41720;DHT22;27405;53.316;-6.294;2023-07-24T04:19:01;13.00;99.90
41720;DHT22;27405;53.316;-6.294;2023-07-24T04:21:26;13.00;99.90
41720;DHT22;27405;53.316;-6.294;2023-07-24T04:23:52;13.00;99.90
41720;DHT22;27405;53.316;-6.294;2023-07-24T04:26:18;13.10;99.90
41720;DHT22;27405;53.316;-6.294;2023-07-24T04:28:43;13.10;99.90
41720;DHT22;27405;53.316;-6.294;2023-07-24T04:31:09;13.10;99.90
41720;DHT22;27405;53.316;-6.294;2023-07-24T04:33:34;13.10;99.90
41720;DHT22;27405;53.316;-6.294;2023-07-24T04:36:00;13.10;99.90
41720;DHT22;27405;53.316;-6.294;2023-07-24T04:38:26;13.20;99.90
41720;DHT22;27405;53.316;-6.294;2023-07-24T04:40:52;13.20;99.90
41720;DHT22;27405;53.316;-6.294;2023-07-24T04:43:17;13.20;99.90
41720;DHT22;27405;53.316;-6.294;2023-07-24T04:45:43;13.20;99.90
41720;DHT22;27405;53.316;-6.294;2023-07-24T04:48:08;13.20;99.90
41720;DHT22;27405;53.316;-6.294;2023-07-24T04:50:34;13.20;99.90
41720;DHT22;27405;53.316;-6.294;2023-07-24T04:53:00;13.20;99.90
41720;DHT22;27405;53.316;-6.294;2023-07-24T04:55:25;13.20;99.90
41720;DHT22;27405;53.316;-6.294;2023-07-24T04:57:51;13.30;99.90
41720;DHT22;27405;53.316;-6.294;2023-07-24T05:00:17;13.30;99.90
41720;DHT22;27405;53.316;-6.294;2023-07-24T05:02:42;13.30;99.90
41720;DHT22;27405;53.316;-6.294;2023-07-24T05:05:09;13.30;99.90
41720;DHT22;27405;53.316;-6.294;2023-07-24T05:07:34;13.40;99.90
41720;DHT22;27405;53.316;-6.294;2023-07-24T05:10:00;13.30;99.90
41720;DHT22;27405;53.316;-6.294;2023-07-24T05:12:26;13.40;99.90
41720;DHT22;27405;53.316;-6.294;2023-07-24T05:14:52;13.40;99.90
41720;DHT22;27405;53.316;-6.294;2023-07-24T05:17:17;13.40;99.90
41720;DHT22;27405;53.316;-6.294;2023-07-24T05:19:43;13.40;99.90
41720;DHT22;27405;53.316;-6.294;2023-07-24T05:22:09;13.50;99.90
41720;DHT22;27405;53.316;-6.294;2023-07-24T05:24:36;13.50;99.90
41720;DHT22;27405;53.316;-6.294;2023-07-24T05:27:03;13.50;99.90
41720;DHT22;27405;53.316;-6.294;2023-07-24T05:29:29;13.50;99.90
41720;DHT22;27405;53.316;-6.294;2023-07-24T05:31:55;13.50;99.90
41720;DHT22;27405;53.316;-6.294;2023-07-24T05:34:21;13.50;99.90
41720;DHT22;27405;53.316;-6.294;2023-07-24T05:36:46;13.50;99.90
41720;DHT22;27405;53.316;-6.294;2023-07-24T05:39:12;13.40;99.90
41720;DHT22;27405;53.316;-6.294;2023-07-24T05:41:38;13.40;99.90
41720;DHT22;27405;53.316;-6.294;2023-07-24T05:44:03;13.40;99.90
41720;DHT22;27405;53.316;-6.294;2023-07-24T05:46:29;13.40;99.90
41720;DHT22;27405;53.316;-6.294;2023-07-24T05:48:55;13.40;99.90
41720;DHT22;27405;53.316;-6.294;2023-07-24T05:51:22;13.30;99.90
41720;DHT22;27405;53.316;-6.294;2023-07-24T05:53:47;13.30;99.90
41720;DHT22;27405;53.316;-6.294;2023-07-24T05:56:13;13.30;99.90
41720;DHT22;27405;53.316;-6.294;2023-07-24T05:58:39;13.30;99.90
41720;DHT22;27405;53.316;-6.294;2023-07-24T06:01:04;13.30;99.90
41720;DHT22;27405;53.316;-6.294;2023-07-24T06:03:33;13.30;99.90
41720;DHT22;27405;53.316;-6.294;2023-07-24T06:05:58;13.30;99.90
41720;DHT22;27405;53.316;-6.294;2023-07-24T06:08:24;13.30;99.90
41720;DHT22;27405;53.316;-6.294;2023-07-24T06:10:50;13.30;99.90
41720;DHT22;27405;53.316;-6.294;2023-07-24T06:13:17;13.40;99.90
41720;DHT22;27405;53.316;-6.294;2023-07-24T06:15:42;13.40;99.90
41720;DHT22;27405;53.316;-6.294;2023-07-24T06:18:09;13.50;99.90
41720;DHT22;27405;53.316;-6.294;2023-07-24T06:20:35;13.60;99.90
41720;DHT22;27405;53.316;-6.294;2023-07-24T06:23:00;13.60;99.90
41720;DHT22;27405;53.316;-6.294;2023-07-24T06:25:26;13.70;99.90
41720;DHT22;27405;53.316;-6.294;2023-07-24T06:27:52;13.70;99.90
41720;DHT22;27405;53.316;-6.294;2023-07-24T06:30:17;13.90;99.90
41720;DHT22;27405;53.316;-6.294;2023-07-24T06:32:43;13.90;99.90
41720;DHT22;27405;53.316;-6.294;2023-07-24T06:35:09;14.00;99.90
41720;DHT22;27405;53.316;-6.294;2023-07-24T06:37:34;14.20;99.90
41720;DHT22;27405;53.316;-6.294;2023-07-24T06:40:00;14.30;99.90
41720;DHT22;27405;53.316;-6.294;2023-07-24T06:42:25;14.40;99.90
41720;DHT22;27405;53.316;-6.294;2023-07-24T06:44:51;14.50;99.90
41720;DHT22;27405;53.316;-6.294;2023-07-24T06:47:17;14.60;99.90
41720;DHT22;27405;53.316;-6.294;2023-07-24T06:49:42;14.70;99.90
41720;DHT22;27405;53.316;-6.294;2023-07-24T06:52:08;14.70;99.90
41720;DHT22;27405;53.316;-6.294;2023-07-24T06:54:34;14.80;99.90
41720;DHT22;27405;53.316;-6.294;2023-07-24T06:56:59;14.90;99.90
41720;DHT22;27405;53.316;-6.294;2023-07-24T06:59:25;14.90;99.90
41720;DHT22;27405;53.316;-6.294;2023-07-24T07:01:51;15.10;99.90
41720;DHT22;27405;53.316;-6.294;2023-07-24T07:04:16;15.10;99.90
41720;DHT22;27405;53.316;-6.294;2023-07-24T07:06:42;15.00;99.90
41720;DHT22;27405;53.316;-6.294;2023-07-24T07:09:08;14.90;99.90
41720;DHT22;27405;53.316;-6.294;2023-07-24T07:11:33;14.80;99.90
41720;DHT22;27405;53.316;-6.294;2023-07-24T07:13:59;14.80;99.90
41720;DHT22;27405;53.316;-6.294;2023-07-24T07:16:24;14.70;99.90
41720;DHT22;27405;53.316;-6.294;2023-07-24T07:18:50;14.60;99.90
41720;DHT22;27405;53.316;-6.294;2023-07-24T07:21:16;14.70;99.90
41720;DHT22;27405;53.316;-6.294;2023-07-24T07:23:41;14.70;99.90
41720;DHT22;27405;53.316;-6.294;2023-07-24T07:26:07;14.80;99.90
41720;DHT22;27405;53.316;-6.294;2023-07-24T07:28:33;14.80;99.90
41720;DHT22;27405;53.316;-6.294;2023-07-24T07:30:58;14.90;99.90
41720;DHT22;27405;53.316;-6.294;2023-07-24T07:33:24;15.10;99.90
41720;DHT22;27405;53.316;-6.294;2023-07-24T07:35:50;15.20;99.90
41720;DHT22;27405;53.316;-6.294;2023-07-24T07:38:16;15.30;99.90
41720;DHT22;27405;53.316;-6.294;2023-07-24T07:40:41;15.40;99.90
41720;DHT22;27405;53.316;-6.294;2023-07-24T07:43:07;15.50;99.90
41720;DHT22;27405;53.316;-6.294;2023-07-24T07:45:33;15.50;99.90
41720;DHT22;27405;53.316;-6.294;2023-07-24T07:47:59;15.70;99.90
41720;DHT22;27405;53.316;-6.294;2023-07-24T07:50:24;15.80;99.90
41720;DHT22;27405;53.316;-6.294;2023-07-24T07:52:51;16.00;99.90
41720;DHT22;27405;53.316;-6.294;2023-07-24T07:55:17;16.10;99.90
41720;DHT22;27405;53.316;-6.294;2023-07-24T07:57:43;16.10;99.90
41720;DHT22;27405;53.316;-6.294;2023-07-24T08:00:09;16.20;99.90
41720;DHT22;27405;53.316;-6.294;2023-07-24T08:02:35;16.30;99.90
41720;DHT22;27405;53.316;-6.294;2023-07-24T08:05:08;16.30;99.90
41720;DHT22;27405;53.316;-6.294;2023-07-24T08:07:34;16.30;99.90
41720;DHT22;27405;53.316;-6.294;2023-07-24T08:10:00;16.20;99.90
41720;DHT22;27405;53.316;-6.294;2023-07-24T08:12:26;16.10;99.90
41720;DHT22;27405;53.316;-6.294;2023-07-24T08:14:52;16.00;99.90
41720;DHT22;27405;53.316;-6.294;2023-07-24T08:17:17;15.90;99.90
41720;DHT22;27405;53.316;-6.294;2023-07-24T08:19:43;15.80;99.90
41720;DHT22;27405;53.316;-6.294;2023-07-24T08:22:09;15.90;99.90
41720;DHT22;27405;53.316;-6.294;2023-07-24T08:24:35;16.00;99.90
41720;DHT22;27405;53.316;-6.294;2023-07-24T08:27:01;16.10;99.90
41720;DHT22;27405;53.316;-6.294;2023-07-24T08:29:27;16.30;99.90
41720;DHT22;27405;53.316;-6.294;2023-07-24T08:31:52;16.40;99.90
41720;DHT22;27405;53.316;-6.294;2023-07-24T08:34:18;16.50;99.90
41720;DHT22;27405;53.316;-6.294;2023-07-24T08:36:43;16.60;99.90
41720;DHT22;27405;53.316;-6.294;2023-07-24T08:39:09;16.60;99.90
41720;DHT22;27405;53.316;-6.294;2023-07-24T08:41:36;16.70;99.90
41720;DHT22;27405;53.316;-6.294;2023-07-24T08:44:07;16.70;99.90
41720;DHT22;27405;53.316;-6.294;2023-07-24T08:46:43;16.60;99.90
41720;DHT22;27405;53.316;-6.294;2023-07-24T08:49:12;16.60;99.90
41720;DHT22;27405;53.316;-6.294;2023-07-24T08:51:43;16.60;99.90
41720;DHT22;27405;53.316;-6.294;2023-07-24T08:54:09;16.60;99.90
41720;DHT22;27405;53.316;-6.294;2023-07-24T08:56:38;16.70;99.90
41720;DHT22;27405;53.316;-6.294;2023-07-24T08:59:07;16.90;99.90
41720;DHT22;27405;53.316;-6.294;2023-07-24T09:01:33;17.00;99.90
41720;DHT22;27405;53.316;-6.294;2023-07-24T09:03:58;17.20;99.90
41720;DHT22;27405;53.316;-6.294;2023-07-24T09:06:26;17.30;99.90
41720;DHT22;27405;53.316;-6.294;2023-07-24T09:08:54;17.40;99.90
41720;DHT22;27405;53.316;-6.294;2023-07-24T09:11:19;17.50;99.90
41720;DHT22;27405;53.316;-6.294;2023-07-24T09:13:45;17.50;99.90
41720;DHT22;27405;53.316;-6.294;2023-07-24T09:16:29;17.50;99.90
41720;DHT22;27405;53.316;-6.294;2023-07-24T09:18:54;17.50;99.90
41720;DHT22;27405;53.316;-6.294;2023-07-24T09:21:31;17.50;99.90
41720;DHT22;27405;53.316;-6.294;2023-07-24T09:24:08;17.60;99.90
41720;DHT22;27405;53.316;-6.294;2023-07-24T09:26:34;17.70;99.90
41720;DHT22;27405;53.316;-6.294;2023-07-24T09:28:59;17.80;99.90
41720;DHT22;27405;53.316;-6.294;2023-07-24T09:31:35;17.80;99.90
41720;DHT22;27405;53.316;-6.294;2023-07-24T09:34:01;17.80;99.90
41720;DHT22;27405;53.316;-6.294;2023-07-24T09:36:37;17.80;99.90
41720;DHT22;27405;53.316;-6.294;2023-07-24T09:39:02;17.70;99.90
41720;DHT22;27405;53.316;-6.294;2023-07-24T09:41:31;17.60;99.90
41720;DHT22;27405;53.316;-6.294;2023-07-24T09:44:00;17.60;99.90
41720;DHT22;27405;53.316;-6.294;2023-07-24T09:46:26;17.60;99.90
41720;DHT22;27405;53.316;-6.294;2023-07-24T09:48:54;17.70;99.90
41720;DHT22;27405;53.316;-6.294;2023-07-24T09:51:20;17.80;99.90
41720;DHT22;27405;53.316;-6.294;2023-07-24T09:54:00;17.90;99.90
41720;DHT22;27405;53.316;-6.294;2023-07-24T09:56:27;17.90;99.90
41720;DHT22;27405;53.316;-6.294;2023-07-24T09:58:54;18.00;99.90
41720;DHT22;27405;53.316;-6.294;2023-07-24T10:01:21;18.00;99.90
41720;DHT22;27405;53.316;-6.294;2023-07-24T10:03:49;18.00;99.90
41720;DHT22;27405;53.316;-6.294;2023-07-24T10:06:16;18.00;99.90
41720;DHT22;27405;53.316;-6.294;2023-07-24T10:08:42;17.90;99.90
41720;DHT22;27405;53.316;-6.294;2023-07-24T10:11:09;17.80;99.90
41720;DHT22;27405;53.316;-6.294;2023-07-24T10:13:36;17.70;99.90
41720;DHT22;27405;53.316;-6.294;2023-07-24T10:16:03;17.60;99.90
41720;DHT22;27405;53.316;-6.294;2023-07-24T10:18:32;17.50;99.90
41720;DHT22;27405;53.316;-6.294;2023-07-24T10:21:05;17.50;99.90
41720;DHT22;27405;53.316;-6.294;2023-07-24T10:23:31;17.50;99.90
41720;DHT22;27405;53.316;-6.294;2023-07-24T10:26:03;17.50;99.90
41720;DHT22;27405;53.316;-6.294;2023-07-24T10:28:32;17.60;99.90
41720;DHT22;27405;53.316;-6.294;2023-07-24T10:30:58;17.70;99.90
41720;DHT22;27405;53.316;-6.294;2023-07-24T10:33:24;18.00;99.90
41720;DHT22;27405;53.316;-6.294;2023-07-24T10:35:54;18.20;99.90
41720;DHT22;27405;53.316;-6.294;2023-07-24T10:38:19;18.40;99.80
41720;DHT22;27405;53.316;-6.294;2023-07-24T10:40:47;18.60;99.60
41720;DHT22;27405;53.316;-6.294;2023-07-24T10:43:18;18.80;98.80
41720;DHT22;27405;53.316;-6.294;2023-07-24T10:48:14;19.00;98.20
41720;DHT22;27405;53.316;-6.294;2023-07-24T10:50:45;19.00;98.10
41720;DHT22;27405;53.316;-6.294;2023-07-24T10:55:37;19.00;97.90
41720;DHT22;27405;53.316;-6.294;2023-07-24T10:58:03;18.90;97.30
41720;DHT22;27405;53.316;-6.294;2023-07-24T11:00:30;18.80;97.30
41720;DHT22;27405;53.316;-6.294;2023-07-24T11:02:57;18.80;97.10
41720;DHT22;27405;53.316;-6.294;2023-07-24T11:05:23;18.70;97.00
41720;DHT22;27405;53.316;-6.294;2023-07-24T11:07:49;18.70;96.90
41720;DHT22;27405;53.316;-6.294;2023-07-24T11:10:20;18.70;96.90
41720;DHT22;27405;53.316;-6.294;2023-07-24T11:12:47;18.80;96.70
41720;DHT22;27405;53.316;-6.294;2023-07-24T11:15:13;18.80;96.50
41720;DHT22;27405;53.316;-6.294;2023-07-24T11:17:41;18.90;96.20
41720;DHT22;27405;53.316;-6.294;2023-07-24T11:20:11;19.00;96.40
41720;DHT22;27405;53.316;-6.294;2023-07-24T11:22:42;19.20;96.40
41720;DHT22;27405;53.316;-6.294;2023-07-24T11:25:11;19.40;96.20
41720;DHT22;27405;53.316;-6.294;2023-07-24T11:27:41;19.50;96.10
41720;DHT22;27405;53.316;-6.294;2023-07-24T11:30:19;19.50;95.60
41720;DHT22;27405;53.316;-6.294;2023-07-24T11:32:51;19.50;95.40
41720;DHT22;27405;53.316;-6.294;2023-07-24T11:35:28;19.40;95.30
41720;DHT22;27405;53.316;-6.294;2023-07-24T11:37:54;19.40;95.20
41720;DHT22;27405;53.316;-6.294;2023-07-24T11:40:20;19.40;95.30
41720;DHT22;27405;53.316;-6.294;2023-07-24T11:42:48;19.40;95.20
41720;DHT22;27405;53.316;-6.294;2023-07-24T11:45:14;19.40;95.00
41720;DHT22;27405;53.316;-6.294;2023-07-24T11:50:09;19.40;94.80
41720;DHT22;27405;53.316;-6.294;2023-07-24T11:52:45;19.40;94.80
41720;DHT22;27405;53.316;-6.294;2023-07-24T11:55:13;19.40;94.60
41720;DHT22;27405;53.316;-6.294;2023-07-24T11:57:39;19.40;94.40
41720;DHT22;27405;53.316;-6.294;2023-07-24T12:00:16;19.40;94.40
41720;DHT22;27405;53.316;-6.294;2023-07-24T12:02:42;19.60;94.70
41720;DHT22;27405;53.316;-6.294;2023-07-24T12:05:10;19.70;94.60
41720;DHT22;27405;53.316;-6.294;2023-07-24T12:07:36;20.00;94.10
41720;DHT22;27405;53.316;-6.294;2023-07-24T12:10:05;20.30;93.80
41720;DHT22;27405;53.316;-6.294;2023-07-24T12:12:44;20.30;93.60
41720;DHT22;27405;53.316;-6.294;2023-07-24T12:15:11;20.30;92.90
41720;DHT22;27405;53.316;-6.294;2023-07-24T12:17:37;20.30;92.80
41720;DHT22;27405;53.316;-6.294;2023-07-24T12:20:04;20.20;92.70
41720;DHT22;27405;53.316;-6.294;2023-07-24T12:22:31;20.20;92.70
41720;DHT22;27405;53.316;-6.294;2023-07-24T12:24:57;20.20;92.60
41720;DHT22;27405;53.316;-6.294;2023-07-24T12:27:24;20.20;92.60
41720;DHT22;27405;53.316;-6.294;2023-07-24T12:29:51;20.40;92.50
41720;DHT22;27405;53.316;-6.294;2023-07-24T12:32:16;20.50;92.30
41720;DHT22;27405;53.316;-6.294;2023-07-24T12:34:43;20.60;92.00
41720;DHT22;27405;53.316;-6.294;2023-07-24T12:37:09;20.60;91.80
41720;DHT22;27405;53.316;-6.294;2023-07-24T12:39:34;20.60;91.80
41720;DHT22;27405;53.316;-6.294;2023-07-24T12:42:00;20.70;91.90
41720;DHT22;27405;53.316;-6.294;2023-07-24T12:44:26;20.80;91.80
41720;DHT22;27405;53.316;-6.294;2023-07-24T12:46:52;20.80;91.60
41720;DHT22;27405;53.316;-6.294;2023-07-24T12:49:18;20.90;91.30
41720;DHT22;27405;53.316;-6.294;2023-07-24T12:51:43;20.90;91.20
41720;DHT22;27405;53.316;-6.294;2023-07-24T12:54:09;20.80;91.30
41720;DHT22;27405;53.316;-6.294;2023-07-24T12:56:35;20.60;91.20
41720;DHT22;27405;53.316;-6.294;2023-07-24T12:59:02;20.40;91.40
41720;DHT22;27405;53.316;-6.294;2023-07-24T13:01:29;20.20;91.80
41720;DHT22;27405;53.316;-6.294;2023-07-24T13:03:54;20.00;92.00
41720;DHT22;27405;53.316;-6.294;2023-07-24T13:06:21;19.70;92.20
41720;DHT22;27405;53.316;-6.294;2023-07-24T13:08:46;19.60;92.60
41720;DHT22;27405;53.316;-6.294;2023-07-24T13:11:12;19.60;92.80
41720;DHT22;27405;53.316;-6.294;2023-07-24T13:13:38;19.50;93.20
41720;DHT22;27405;53.316;-6.294;2023-07-24T13:16:04;19.50;93.30
41720;DHT22;27405;53.316;-6.294;2023-07-24T13:18:29;19.60;93.60
41720;DHT22;27405;53.316;-6.294;2023-07-24T13:20:58;19.80;93.60
41720;DHT22;27405;53.316;-6.294;2023-07-24T13:23:24;19.90;93.30
41720;DHT22;27405;53.316;-6.294;2023-07-24T13:25:52;20.10;93.10
41720;DHT22;27405;53.316;-6.294;2023-07-24T13:28:18;20.10;92.70
41720;DHT22;27405;53.316;-6.294;2023-07-24T13:30:44;20.20;92.50
41720;DHT22;27405;53.316;-6.294;2023-07-24T13:33:09;20.30;92.10
41720;DHT22;27405;53.316;-6.294;2023-07-24T13:35:35;20.30;92.20
41720;DHT22;27405;53.316;-6.294;2023-07-24T13:38:01;20.30;92.00
41720;DHT22;27405;53.316;-6.294;2023-07-24T13:40:26;20.30;91.90
41720;DHT22;27405;53.316;-6.294;2023-07-24T13:42:52;20.30;91.90
41720;DHT22;27405;53.316;-6.294;2023-07-24T13:45:18;20.40;91.50
41720;DHT22;27405;53.316;-6.294;2023-07-24T13:47:43;20.50;91.50
41720;DHT22;27405;53.316;-6.294;2023-07-24T13:50:09;20.80;91.60
41720;DHT22;27405;53.316;-6.294;2023-07-24T13:52:35;20.90;91.50
41720;DHT22;27405;53.316;-6.294;2023-07-24T13:55:01;21.00;91.40
41720;DHT22;27405;53.316;-6.294;2023-07-24T13:57:27;21.10;91.40
41720;DHT22;27405;53.316;-6.294;2023-07-24T13:59:52;21.20;91.50
41720;DHT22;27405;53.316;-6.294;2023-07-24T14:02:18;21.20;91.40
41720;DHT22;27405;53.316;-6.294;2023-07-24T14:04:44;21.20;91.70
41720;DHT22;27405;53.316;-6.294;2023-07-24T14:07:10;21.20;91.30
41720;DHT22;27405;53.316;-6.294;2023-07-24T14:09:38;21.10;91.10
41720;DHT22;27405;53.316;-6.294;2023-07-24T14:12:04;21.10;91.20
41720;DHT22;27405;53.316;-6.294;2023-07-24T14:14:30;21.00;91.20
41720;DHT22;27405;53.316;-6.294;2023-07-24T14:16:56;20.80;91.20
41720;DHT22;27405;53.316;-6.294;2023-07-24T14:19:22;20.80;91.00
41720;DHT22;27405;53.316;-6.294;2023-07-24T14:21:49;20.70;91.00
41720;DHT22;27405;53.316;-6.294;2023-07-24T14:24:15;20.70;91.20
41720;DHT22;27405;53.316;-6.294;2023-07-24T14:26:41;20.70;91.00
41720;DHT22;27405;53.316;-6.294;2023-07-24T14:29:07;20.80;90.80
41720;DHT22;27405;53.316;-6.294;2023-07-24T14:31:32;20.70;90.90
41720;DHT22;27405;53.316;-6.294;2023-07-24T14:33:58;20.70;90.90
41720;DHT22;27405;53.316;-6.294;2023-07-24T14:36:23;20.60;91.00
41720;DHT22;27405;53.316;-6.294;2023-07-24T14:38:49;20.60;91.00
41720;DHT22;27405;53.316;-6.294;2023-07-24T14:41:16;20.50;90.90
41720;DHT22;27405;53.316;-6.294;2023-07-24T14:43:42;20.40;91.30
41720;DHT22;27405;53.316;-6.294;2023-07-24T14:46:08;20.50;91.20
41720;DHT22;27405;53.316;-6.294;2023-07-24T14:48:33;20.50;91.00
41720;DHT22;27405;53.316;-6.294;2023-07-24T14:50:59;20.50;91.10
41720;DHT22;27405;53.316;-6.294;2023-07-24T14:53:25;20.60;91.00
41720;DHT22;27405;53.316;-6.294;2023-07-24T14:55:51;20.50;91.00
41720;DHT22;27405;53.316;-6.294;2023-07-24T14:58:16;20.60;91.00
41720;DHT22;27405;53.316;-6.294;2023-07-24T15:00:42;20.60;90.90
41720;DHT22;27405;53.316;-6.294;2023-07-24T15:03:07;20.60;90.80
41720;DHT22;27405;53.316;-6.294;2023-07-24T15:05:33;20.60;90.90
41720;DHT22;27405;53.316;-6.294;2023-07-24T15:07:59;20.50;90.90
41720;DHT22;27405;53.316;-6.294;2023-07-24T15:10:25;20.40;91.00
41720;DHT22;27405;53.316;-6.294;2023-07-24T15:12:51;20.30;91.30
41720;DHT22;27405;53.316;-6.294;2023-07-24T15:15:16;20.00;90.90
41720;DHT22;27405;53.316;-6.294;2023-07-24T15:17:42;19.70;91.00
41720;DHT22;27405;53.316;-6.294;2023-07-24T15:20:08;19.40;92.10
41720;DHT22;27405;53.316;-6.294;2023-07-24T15:22:34;19.10;93.30